Augusta, Wisconsin
Current Conditions -  °F | °C
As of 1:56 AM on Monday 24 Nov 2014 (Local Time) from KEAU Reporting Station
Overcast Overcast  
Wind Chill: 30°   Ceiling: 900
Heat Index: 37°   Visibility: 10mi
Dew Point: 34°   Wind: 10mph
Humidity: 89%   Direction: 330°NNW
Pressure: 29.18"   Gusts: NA
Location:  44.68°N, 91.12°W
Report Text: KEAU 240756Z AUTO 33009KT 10SM OVC009 03/01 A2918 RMK AO2 CIG 008V012 SLP887 T00280011
Loading
Personal Weather Stations






























Interactive Weather Map New forecast layout! Learn more

10-Day Weather Forecast

Advertisements
Track Severe Weather on mobile